Time;durP1;ratioP1;P1;durP2;ratioP2;P2;SDS_P1;SDS_P2;PMS_P1;PMS_P2;Temp;Humidity;BMP_temperature;BMP_pressure;BME280_temperature;BME280_humidity;BME280_pressure;Samples;Min_cycle;Max_cycle;Signal;HPM_P1;HPM_P2
2023/04/16 00:02:04;;;;;;;57.63;21.90;;;8.20;99.90;;;;;;5107064;28;20054;-78
2023/04/16 00:04:30;;;;;;;70.85;22.10;;;8.30;99.90;;;;;;5106514;28;20043;-78
2023/04/16 00:06:56;;;;;;;74.72;23.88;;;8.20;99.90;;;;;;5074249;28;20047;-78
2023/04/16 00:09:21;;;;;;;58.22;21.25;;;8.20;99.90;;;;;;5093266;27;20383;-78
2023/04/16 00:11:47;;;;;;;68.25;23.65;;;8.20;99.90;;;;;;5111837;27;20438;-78
2023/04/16 00:14:13;;;;;;;68.93;22.75;;;8.20;99.90;;;;;;5111063;27;20073;-78
2023/04/16 00:16:38;;;;;;;66.90;22.00;;;8.20;99.90;;;;;;5110516;27;20400;-78
2023/04/16 00:19:04;;;;;;;78.50;23.15;;;8.20;99.90;;;;;;5093914;27;20047;-78
2023/04/16 00:21:32;;;;;;;72.72;24.60;;;8.20;99.90;;;;;;5109682;27;20074;-78
2023/04/16 00:23:58;;;;;;;77.07;25.80;;;8.20;99.90;;;;;;5077369;27;20133;-78
2023/04/16 00:26:24;;;;;;;83.07;26.85;;;8.20;99.90;;;;;;5093151;27;20083;-78
2023/04/16 00:28:49;;;;;;;64.68;25.65;;;8.20;99.90;;;;;;5094979;27;20046;-78
2023/04/16 00:31:15;;;;;;;72.13;27.02;;;7.80;99.90;;;;;;5110265;27;20426;-78
2023/04/16 00:33:41;;;;;;;80.75;27.58;;;8.20;99.90;;;;;;5093367;27;20444;-78
2023/04/16 00:36:06;;;;;;;65.15;27.38;;;8.70;99.90;;;;;;5076477;27;20055;-78
2023/04/16 00:38:32;;;;;;;71.78;27.45;;;8.40;99.90;;;;;;5109571;27;20426;-78
2023/04/16 00:40:58;;;;;;;66.32;27.60;;;8.20;99.90;;;;;;5110934;27;20090;-78
2023/04/16 00:43:25;;;;;;;78.15;27.02;;;8.60;99.90;;;;;;5092511;27;20080;-78
2023/04/16 00:45:52;;;;;;;78.03;28.40;;;8.20;99.90;;;;;;5094110;27;20035;-78
2023/04/16 00:48:19;;;;;;;87.40;28.92;;;8.20;99.90;;;;;;5092765;27;20036;-77
2023/04/16 00:50:45;;;;;;;74.43;27.63;;;8.30;99.90;;;;;;5092888;27;20127;-78
2023/04/16 00:53:12;;;;;;;71.25;28.92;;;8.20;99.90;;;;;;5110172;27;20122;-78
2023/04/16 00:55:39;;;;;;;76.53;29.60;;;8.30;99.90;;;;;;5092550;27;20470;-79
2023/04/16 00:58:05;;;;;;;85.97;26.60;;;8.20;99.90;;;;;;5110675;27;20122;-79
2023/04/16 01:00:31;;;;;;;66.78;27.65;;;8.30;99.90;;;;;;5092504;27;20130;-79
2023/04/16 01:02:58;;;;;;;58.40;25.48;;;8.20;99.90;;;;;;5110601;27;20088;-79
2023/04/16 01:05:24;;;;;;;75.03;30.00;;;8.20;99.90;;;;;;5092348;27;20035;-79
2023/04/16 01:07:50;;;;;;;94.32;27.65;;;8.10;99.90;;;;;;5109438;27;20135;-79
2023/04/16 01:10:16;;;;;;;83.05;27.42;;;8.10;99.90;;;;;;5093839;27;20092;-79
2023/04/16 01:12:41;;;;;;;97.18;29.08;;;8.10;99.90;;;;;;5092196;27;20545;-79
2023/04/16 01:15:07;;;;;;;69.47;23.40;;;9.10;99.90;;;;;;5093139;27;20066;-79
2023/04/16 01:17:33;;;;;;;65.00;25.65;;;8.10;99.90;;;;;;5092764;27;20047;-79
2023/04/16 01:19:59;;;;;;;84.88;26.88;;;7.10;99.90;;;;;;5110036;27;20043;-79
2023/04/16 01:22:26;;;;;;;107.18;25.60;;;8.10;99.90;;;;;;5076175;27;20050;-79
2023/04/16 01:24:52;;;;;;;113.60;25.77;;;8.50;99.90;;;;;;5110245;27;20387;-79
2023/04/16 01:27:17;;;;;;;98.00;25.35;;;8.00;99.90;;;;;;5110193;27;20058;-79
2023/04/16 01:29:43;;;;;;;104.53;24.80;;;8.10;99.90;;;;;;5092115;27;20763;-79
2023/04/16 01:32:09;;;;;;;83.82;23.95;;;8.10;99.90;;;;;;5110008;27;20043;-79
2023/04/16 01:34:35;;;;;;;108.40;24.83;;;8.10;99.90;;;;;;5092135;27;20070;-79
2023/04/16 01:37:01;;;;;;;69.15;25.80;;;8.00;99.90;;;;;;5109805;27;20073;-80
2023/04/16 01:39:27;;;;;;;81.80;24.75;;;8.30;99.90;;;;;;5092102;27;20610;-79
2023/04/16 01:41:53;;;;;;;81.68;25.85;;;8.00;99.90;;;;;;5109680;27;20138;-79
2023/04/16 01:44:18;;;;;;;66.97;27.08;;;8.10;99.90;;;;;;5092758;27;20035;-79
2023/04/16 01:46:44;;;;;;;66.15;25.10;;;8.20;99.90;;;;;;5091899;27;20062;-79
2023/04/16 01:49:10;;;;;;;77.45;26.02;;;8.00;99.90;;;;;;5109547;27;20047;-79
2023/04/16 01:51:35;;;;;;;61.80;24.20;;;8.10;99.90;;;;;;5109136;27;20043;-79
2023/04/16 01:54:01;;;;;;;67.88;26.08;;;8.10;99.90;;;;;;5109700;27;20474;-79
2023/04/16 01:56:27;;;;;;;75.93;26.20;;;8.00;99.90;;;;;;5108756;27;20043;-79
2023/04/16 01:58:52;;;;;;;75.82;26.80;;;8.00;99.90;;;;;;5092425;27;20100;-79
2023/04/16 02:01:18;;;;;;;110.75;27.90;;;8.90;99.90;;;;;;5092344;27;20074;-79
2023/04/16 02:03:44;;;;;;;73.93;28.02;;;8.10;99.90;;;;;;5092202;27;20593;-79
2023/04/16 02:06:10;;;;;;;91.07;28.35;;;8.10;99.90;;;;;;5109657;27;20710;-79
2023/04/16 02:08:36;;;;;;;95.95;29.05;;;8.10;99.90;;;;;;5091013;27;20046;-79
2023/04/16 02:11:01;;;;;;;86.35;29.80;;;8.10;99.90;;;;;;5092946;27;20050;-79
2023/04/16 02:13:27;;;;;;;100.50;29.48;;;8.10;99.90;;;;;;5091660;27;20043;-79
2023/04/16 02:15:53;;;;;;;78.95;29.63;;;8.20;99.90;;;;;;5092054;27;20191;-79
2023/04/16 02:18:18;;;;;;;79.57;29.20;;;8.20;99.90;;;;;;5091357;27;20043;-79
2023/04/16 02:20:45;;;;;;;74.20;28.80;;;8.20;99.90;;;;;;5091565;27;20043;-79
2023/04/16 02:23:13;;;;;;;91.20;29.15;;;8.20;99.90;;;;;;5092042;27;20535;-79
2023/04/16 02:25:40;;;;;;;75.60;30.02;;;8.20;99.90;;;;;;5108189;27;20516;-79
2023/04/16 02:28:08;;;;;;;97.15;29.40;;;8.40;99.90;;;;;;5109508;27;20039;-79
2023/04/16 02:30:35;;;;;;;104.68;28.27;;;8.20;99.90;;;;;;5108442;27;20066;-79
2023/04/16 02:33:04;;;;;;;86.95;29.98;;;8.30;99.90;;;;;;5109172;27;20062;-79
2023/04/16 02:35:31;;;;;;;82.28;28.13;;;8.30;99.90;;;;;;5091200;27;20062;-79
2023/04/16 02:37:57;;;;;;;86.38;27.73;;;8.30;99.90;;;;;;5087613;28;20047;-79
2023/04/16 02:40:23;;;;;;;96.40;28.08;;;8.30;99.90;;;;;;5088041;28;20486;-79
2023/04/16 02:42:49;;;;;;;86.70;29.65;;;8.30;99.90;;;;;;5104615;28;20050;-79
2023/04/16 02:45:15;;;;;;;90.90;27.20;;;8.70;99.90;;;;;;5105170;28;20039;-79
2023/04/16 02:47:40;;;;;;;107.60;30.33;;;8.30;99.90;;;;;;5104175;28;20108;-79
2023/04/16 02:50:07;;;;;;;79.65;28.42;;;8.30;99.90;;;;;;5105322;28;20335;-79
2023/04/16 02:52:32;;;;;;;94.10;28.05;;;8.30;99.90;;;;;;5087413;28;20138;-79
2023/04/16 02:54:58;;;;;;;97.25;27.77;;;8.30;99.90;;;;;;5104332;28;20511;-79
2023/04/16 02:57:24;;;;;;;86.38;27.85;;;8.30;99.90;;;;;;5104566;28;20032;-79
2023/04/16 02:59:50;;;;;;;77.38;25.90;;;8.30;99.90;;;;;;5086510;28;20072;-79
2023/04/16 03:02:16;;;;;;;91.45;25.85;;;8.30;99.90;;;;;;5087838;28;20042;-79
2023/04/16 03:04:42;;;;;;;74.63;25.13;;;8.90;99.90;;;;;;5087401;28;20043;-79
2023/04/16 03:07:08;;;;;;;80.18;25.67;;;9.00;99.90;;;;;;5104797;28;20526;-79
2023/04/16 03:09:36;;;;;;;75.30;25.65;;;8.80;99.90;;;;;;5104155;28;20049;-79
2023/04/16 03:12:02;;;;;;;88.60;26.88;;;8.40;99.90;;;;;;5104456;28;20055;-80
2023/04/16 03:14:28;;;;;;;74.05;26.67;;;8.20;99.90;;;;;;5087425;28;20429;-79
2023/04/16 03:16:54;;;;;;;77.97;25.35;;;8.20;99.90;;;;;;5103432;28;20040;-80
2023/04/16 03:19:20;;;;;;;84.85;26.20;;;8.20;99.90;;;;;;5070674;28;20487;-80
2023/04/16 03:21:45;;;;;;;67.75;23.88;;;8.20;99.90;;;;;;5086939;28;20051;-80
2023/04/16 03:24:12;;;;;;;82.45;25.42;;;8.20;99.90;;;;;;5105143;28;20043;-79
2023/04/16 03:26:37;;;;;;;73.47;26.20;;;8.20;99.90;;;;;;5070488;28;20035;-79
2023/04/16 03:29:03;;;;;;;79.10;25.20;;;8.20;99.90;;;;;;5086870;28;20085;-79
2023/04/16 03:31:29;;;;;;;92.90;24.70;;;8.30;99.90;;;;;;5087454;28;20521;-79
2023/04/16 03:33:55;;;;;;;99.07;25.63;;;8.20;99.90;;;;;;5086238;28;20051;-79
2023/04/16 03:36:21;;;;;;;62.42;22.98;;;8.20;99.90;;;;;;5104063;28;20052;-79
2023/04/16 03:38:48;;;;;;;77.20;22.85;;;8.20;99.90;;;;;;5103220;28;20517;-79
2023/04/16 03:41:13;;;;;;;97.43;23.83;;;8.20;99.90;;;;;;5087265;28;20044;-79
2023/04/16 03:43:40;;;;;;;71.35;23.13;;;8.10;99.90;;;;;;5102975;28;20044;-80
2023/04/16 03:46:05;;;;;;;81.22;22.00;;;8.20;99.90;;;;;;5105408;28;20040;-79
2023/04/16 03:48:31;;;;;;;73.95;23.77;;;8.60;99.90;;;;;;5086524;28;20399;-79
2023/04/16 03:50:57;;;;;;;92.03;24.20;;;8.20;99.90;;;;;;5085640;28;20235;-79
2023/04/16 03:53:23;;;;;;;70.43;21.33;;;8.80;99.90;;;;;;5103432;28;20401;-78
2023/04/16 03:55:52;;;;;;;90.68;22.27;;;8.20;99.90;;;;;;5069353;28;20036;-79
2023/04/16 03:58:19;;;;;;;85.90;24.25;;;8.20;99.90;;;;;;5087323;28;20040;-79
2023/04/16 04:00:44;;;;;;;80.70;23.60;;;8.10;99.90;;;;;;5103609;28;20043;-79
2023/04/16 04:03:10;;;;;;;74.93;22.20;;;8.10;99.90;;;;;;5103726;28;20046;-79
2023/04/16 04:05:41;;;;;;;94.93;25.90;;;8.40;99.90;;;;;;5103148;28;20063;-79
2023/04/16 04:08:07;;;;;;;90.22;24.58;;;8.10;99.90;;;;;;5102841;28;20047;-79
2023/04/16 04:10:34;;;;;;;76.63;21.52;;;8.20;99.90;;;;;;5086589;28;20139;-79
2023/04/16 04:13:04;;;;;;;91.80;20.75;;;8.10;99.90;;;;;;5102626;28;20048;-79
2023/04/16 04:15:30;;;;;;;86.40;21.70;;;8.10;99.90;;;;;;5087457;28;20446;-79
2023/04/16 04:17:56;;;;;;;87.35;22.70;;;8.10;99.90;;;;;;5086171;28;20044;-79
2023/04/16 04:20:23;;;;;;;87.40;22.95;;;8.30;99.90;;;;;;5086309;28;20073;-79
2023/04/16 04:22:49;;;;;;;92.68;22.70;;;8.30;99.90;;;;;;5086164;28;20035;-79
2023/04/16 04:25:16;;;;;;;104.65;24.25;;;8.00;99.90;;;;;;5102395;28;20538;-79
2023/04/16 04:27:42;;;;;;;111.53;24.58;;;8.00;99.90;;;;;;5086490;28;20031;-79
2023/04/16 04:30:08;;;;;;;110.07;24.08;;;8.40;99.90;;;;;;5069460;28;20096;-80
2023/04/16 04:32:34;;;;;;;86.85;21.98;;;8.00;99.90;;;;;;5103777;28;20039;-79
2023/04/16 04:35:01;;;;;;;119.00;25.48;;;9.10;99.90;;;;;;5102693;28;20536;-79
2023/04/16 04:37:27;;;;;;;107.15;24.25;;;8.00;99.90;;;;;;5103009;28;20096;-79
2023/04/16 04:39:52;;;;;;;117.32;24.13;;;9.10;99.90;;;;;;5102964;28;20056;-79
2023/04/16 04:42:21;;;;;;;105.95;23.05;;;8.00;99.90;;;;;;5102736;28;20050;-79
2023/04/16 04:44:47;;;;;;;102.60;24.95;;;8.00;99.90;;;;;;5086509;28;20043;-78
2023/04/16 04:47:13;;;;;;;102.85;22.27;;;8.00;99.90;;;;;;5085295;28;20050;-79
2023/04/16 04:49:39;;;;;;;95.90;22.38;;;8.20;99.90;;;;;;5069645;28;20211;-77
2023/04/16 04:52:05;;;;;;;118.50;22.55;;;8.10;99.90;;;;;;5102354;28;20156;-77
2023/04/16 04:54:32;;;;;;;97.78;21.63;;;8.10;99.90;;;;;;5103854;28;20058;-78
2023/04/16 04:56:58;;;;;;;78.47;20.92;;;8.10;99.90;;;;;;5106224;28;20051;-78
2023/04/16 04:59:24;;;;;;;79.97;20.90;;;8.00;99.90;;;;;;5106335;28;20040;-77
2023/04/16 05:01:50;;;;;;;83.55;21.92;;;8.00;99.90;;;;;;5089756;28;20089;-77
2023/04/16 05:04:16;;;;;;;108.95;21.92;;;8.10;99.90;;;;;;5106118;28;20039;-78
2023/04/16 05:06:43;;;;;;;84.30;21.48;;;8.10;99.90;;;;;;5073036;28;20040;-78
2023/04/16 05:09:10;;;;;;;95.32;21.55;;;8.30;99.90;;;;;;5072064;28;20051;-77
2023/04/16 05:11:40;;;;;;;81.57;21.00;;;8.50;99.90;;;;;;5072760;28;20044;-78
2023/04/16 05:14:06;;;;;;;78.15;20.17;;;8.10;99.90;;;;;;5106113;28;20094;-77
2023/04/16 05:16:31;;;;;;;84.97;20.00;;;8.10;99.90;;;;;;5105232;28;20075;-78
2023/04/16 05:18:57;;;;;;;68.10;19.42;;;8.10;99.90;;;;;;5089602;28;20048;-78
2023/04/16 05:21:25;;;;;;;82.43;20.38;;;8.10;99.90;;;;;;5105650;28;20134;-79
2023/04/16 05:23:50;;;;;;;96.88;21.27;;;8.10;99.90;;;;;;5090032;28;20373;-78
2023/04/16 05:26:16;;;;;;;73.70;20.75;;;8.00;99.90;;;;;;5088629;28;20112;-78
2023/04/16 05:28:42;;;;;;;92.53;20.25;;;8.10;99.90;;;;;;5106204;28;20130;-78
2023/04/16 05:31:07;;;;;;;89.15;19.23;;;8.00;99.90;;;;;;5088596;28;20537;-78
2023/04/16 05:33:33;;;;;;;96.78;22.77;;;8.00;99.90;;;;;;5105429;28;20196;-79
2023/04/16 05:35:59;;;;;;;109.75;19.85;;;8.00;99.90;;;;;;5105856;28;20066;-78
2023/04/16 05:38:24;;;;;;;86.85;19.42;;;9.00;99.90;;;;;;5105763;28;20069;-78
2023/04/16 05:40:50;;;;;;;75.55;21.00;;;8.00;99.90;;;;;;5106432;28;20055;-78
2023/04/16 05:43:16;;;;;;;71.05;18.33;;;8.00;99.90;;;;;;5088307;28;20058;-78
2023/04/16 05:45:42;;;;;;;57.05;17.65;;;8.00;99.90;;;;;;5089672;28;20145;-79
2023/04/16 05:48:08;;;;;;;51.90;17.67;;;8.10;99.90;;;;;;5088454;28;20111;-79
2023/04/16 05:50:35;;;;;;;55.55;19.42;;;8.10;99.90;;;;;;5088744;28;20175;-79
2023/04/16 05:53:02;;;;;;;103.07;19.45;;;8.10;99.90;;;;;;5088891;28;20282;-79
2023/04/16 05:55:28;;;;;;;82.55;18.90;;;8.30;99.90;;;;;;5104779;28;20039;-79
2023/04/16 05:57:54;;;;;;;74.70;19.08;;;8.20;99.90;;;;;;5105963;28;20126;-79
2023/04/16 06:00:20;;;;;;;84.18;19.33;;;8.20;99.90;;;;;;5088166;28;20044;-79
2023/04/16 06:02:45;;;;;;;79.70;20.23;;;8.30;99.90;;;;;;5106275;28;20044;-79
2023/04/16 06:05:11;;;;;;;92.07;18.90;;;8.30;99.90;;;;;;5088176;28;20502;-79
2023/04/16 06:07:37;;;;;;;100.32;21.38;;;8.30;99.90;;;;;;5088778;28;20417;-77
2023/04/16 06:10:02;;;;;;;76.10;19.83;;;8.40;99.90;;;;;;5105466;28;20551;-78
2023/04/16 06:12:28;;;;;;;79.50;17.40;;;8.40;99.90;;;;;;5087526;28;20051;-78
2023/04/16 06:14:54;;;;;;;83.13;20.05;;;8.40;99.90;;;;;;5105528;28;20044;-78
2023/04/16 06:17:20;;;;;;;79.85;18.45;;;8.50;99.90;;;;;;5087870;28;20052;-78
2023/04/16 06:19:45;;;;;;;81.43;20.05;;;8.50;99.90;;;;;;5105646;28;20121;-78
2023/04/16 06:22:11;;;;;;;79.95;18.23;;;8.50;99.90;;;;;;5087795;28;20083;-78
2023/04/16 06:24:37;;;;;;;64.60;18.00;;;8.60;99.90;;;;;;5087889;28;20047;-78
2023/04/16 06:27:02;;;;;;;85.90;19.33;;;8.70;99.90;;;;;;5088219;28;20043;-78
2023/04/16 06:29:28;;;;;;;68.63;17.73;;;8.60;99.90;;;;;;5087145;28;20320;-78
2023/04/16 06:31:54;;;;;;;72.60;17.23;;;8.70;99.90;;;;;;5071305;28;20201;-80
2023/04/16 06:34:20;;;;;;;70.13;20.70;;;8.80;99.90;;;;;;5104221;28;20421;-79
2023/04/16 06:36:45;;;;;;;60.80;18.60;;;8.80;99.90;;;;;;5105190;28;20066;-80
2023/04/16 06:39:11;;;;;;;43.55;14.38;;;9.00;99.90;;;;;;5070692;28;20055;-77
2023/04/16 06:41:37;;;;;;;61.45;16.88;;;9.00;99.90;;;;;;5088092;28;20078;-78
2023/04/16 06:44:03;;;;;;;63.85;16.40;;;9.10;99.90;;;;;;5104594;28;20196;-79
2023/04/16 06:46:28;;;;;;;52.05;15.40;;;9.20;99.90;;;;;;5070283;28;20039;-79
2023/04/16 06:48:54;;;;;;;61.38;15.98;;;9.20;99.90;;;;;;5087999;28;20052;-79
2023/04/16 06:51:20;;;;;;;61.00;16.30;;;9.60;99.90;;;;;;5103656;28;20046;-78
2023/04/16 06:53:45;;;;;;;57.75;17.45;;;9.40;99.90;;;;;;5071251;28;20085;-78
2023/04/16 06:56:11;;;;;;;62.03;16.30;;;9.40;99.90;;;;;;5086950;28;20150;-78
2023/04/16 06:58:37;;;;;;;55.45;17.02;;;9.50;99.90;;;;;;5087852;28;20039;-79
2023/04/16 07:01:03;;;;;;;51.20;16.02;;;9.50;99.90;;;;;;5104526;28;20092;-79
2023/04/16 07:03:29;;;;;;;53.03;16.35;;;9.50;99.90;;;;;;5103800;28;20506;-79
2023/04/16 07:05:55;;;;;;;39.00;16.02;;;9.50;99.90;;;;;;5072848;28;20052;-79
2023/04/16 07:08:20;;;;;;;66.88;17.75;;;9.60;99.90;;;;;;5086561;28;20491;-80
2023/04/16 07:10:46;;;;;;;45.38;16.58;;;9.70;99.90;;;;;;5105145;28;20188;-80
2023/04/16 07:13:12;;;;;;;48.85;14.80;;;9.70;99.90;;;;;;5086851;28;20407;-79
2023/04/16 07:15:37;;;;;;;53.45;15.55;;;9.80;99.90;;;;;;5070769;28;20047;-79
2023/04/16 07:18:03;;;;;;;52.85;17.27;;;9.90;99.90;;;;;;5086645;28;20040;-79
2023/04/16 07:20:29;;;;;;;49.78;17.13;;;9.80;99.90;;;;;;5087112;28;20035;-80
2023/04/16 07:22:55;;;;;;;47.38;15.43;;;9.80;99.90;;;;;;5070764;28;20051;-80
2023/04/16 07:25:21;;;;;;;47.60;15.45;;;9.90;99.90;;;;;;5086372;28;20134;-80
2023/04/16 07:27:46;;;;;;;44.50;15.18;;;9.80;99.90;;;;;;5087542;28;20127;-80
2023/04/16 07:30:12;;;;;;;54.30;16.02;;;9.90;99.90;;;;;;5103953;28;20104;-80
2023/04/16 07:32:38;;;;;;;52.03;15.40;;;9.90;99.90;;;;;;5104350;28;20400;-79
2023/04/16 07:35:04;;;;;;;44.63;14.95;;;9.90;99.90;;;;;;5103712;28;20103;-82
2023/04/16 07:37:30;;;;;;;42.72;15.98;;;9.90;99.90;;;;;;5086438;28;20051;-80
2023/04/16 07:39:56;;;;;;;59.97;16.02;;;10.00;99.90;;;;;;5104821;28;20039;-81
2023/04/16 07:42:22;;;;;;;34.42;15.32;;;10.00;99.90;;;;;;5086156;28;20043;-80
2023/04/16 07:44:48;;;;;;;40.47;16.10;;;10.00;99.90;;;;;;5087534;28;20046;-79
2023/04/16 07:47:13;;;;;;;46.28;15.63;;;10.10;99.90;;;;;;5103210;28;20044;-79
2023/04/16 07:49:39;;;;;;;51.80;14.25;;;10.70;99.90;;;;;;5104584;28;20044;-80
2023/04/16 07:52:05;;;;;;;43.85;14.52;;;10.20;99.90;;;;;;5086718;28;20047;-79
2023/04/16 07:54:31;;;;;;;36.78;13.50;;;10.30;99.90;;;;;;5103781;28;20036;-79
2023/04/16 07:56:56;;;;;;;45.72;13.55;;;10.40;99.90;;;;;;5103483;28;20104;-81
2023/04/16 07:59:22;;;;;;;41.20;13.32;;;10.30;99.90;;;;;;5103167;28;20039;-80
2023/04/16 08:01:48;;;;;;;44.05;13.15;;;10.30;99.90;;;;;;5069999;28;20039;-78
2023/04/16 08:04:16;;;;;;;33.85;13.73;;;10.40;99.90;;;;;;5103248;28;20043;-80
2023/04/16 08:06:41;;;;;;;41.40;12.80;;;10.50;99.90;;;;;;5070599;28;20047;-79
2023/04/16 08:09:07;;;;;;;41.45;12.63;;;10.90;99.90;;;;;;5086275;28;20044;-79
2023/04/16 08:11:33;;;;;;;54.40;13.68;;;10.50;99.90;;;;;;5103350;28;20040;-81
2023/04/16 08:13:58;;;;;;;48.78;12.25;;;10.60;99.90;;;;;;5086299;28;20458;-78
2023/04/16 08:16:24;;;;;;;40.15;12.70;;;10.70;99.90;;;;;;5102401;28;20077;-79
2023/04/16 08:18:50;;;;;;;46.42;13.90;;;10.80;99.90;;;;;;5086548;28;20035;-79
2023/04/16 08:21:16;;;;;;;45.42;13.77;;;10.90;99.90;;;;;;5086264;28;20062;-79
2023/04/16 08:23:41;;;;;;;30.17;11.80;;;10.90;99.90;;;;;;5087418;28;20050;-79
2023/04/16 08:26:07;;;;;;;37.03;12.82;;;11.00;99.90;;;;;;5085886;28;20040;-79
2023/04/16 08:28:33;;;;;;;39.80;12.77;;;11.20;99.90;;;;;;5087024;28;20039;-79
2023/04/16 08:30:59;;;;;;;37.53;12.50;;;11.30;99.90;;;;;;5090543;28;20039;-79
2023/04/16 08:33:24;;;;;;;46.38;12.68;;;11.40;99.90;;;;;;5090198;28;20036;-78
2023/04/16 08:35:50;;;;;;;34.53;12.75;;;11.40;99.90;;;;;;5109613;27;20592;-79
2023/04/16 08:38:16;;;;;;;37.90;13.48;;;11.50;99.90;;;;;;5093193;27;20078;-80
2023/04/16 08:40:42;;;;;;;31.77;11.77;;;11.70;99.90;;;;;;5111272;27;20116;-79
2023/04/16 08:43:12;;;;;;;28.27;12.77;;;11.70;99.90;;;;;;5092929;27;20088;-79
2023/04/16 08:45:41;;;;;;;37.30;12.48;;;11.80;99.90;;;;;;5110668;27;20100;-79
2023/04/16 08:48:09;;;;;;;34.45;12.75;;;12.00;99.90;;;;;;5093637;27;20398;-80
2023/04/16 08:50:36;;;;;;;35.63;12.27;;;12.10;99.90;;;;;;5110072;27;20101;-79
2023/04/16 08:53:05;;;;;;;33.10;11.57;;;12.30;99.90;;;;;;5111099;27;20414;-79
2023/04/16 08:55:48;;;;;;;27.83;10.85;;;12.30;99.90;;;;;;5109485;27;20054;-80
2023/04/16 08:58:18;;;;;;;45.63;12.95;;;12.30;99.90;;;;;;5093806;27;20099;-79
2023/04/16 09:00:45;;;;;;;29.52;11.85;;;12.30;99.90;;;;;;5109942;27;20050;-79
2023/04/16 09:03:11;;;;;;;32.65;11.73;;;12.40;99.90;;;;;;5109843;27;20095;-77
2023/04/16 09:05:37;;;;;;;28.23;11.13;;;12.40;99.90;;;;;;5110239;27;20081;-77
2023/04/16 09:08:05;;;;;;;36.17;10.98;;;12.50;99.90;;;;;;5109636;27;20047;-78
2023/04/16 09:10:31;;;;;;;36.67;12.25;;;12.60;99.90;;;;;;5076837;27;20070;-79
2023/04/16 09:12:57;;;;;;;30.10;10.73;;;12.70;99.90;;;;;;5109267;27;20047;-78
2023/04/16 09:15:28;;;;;;;36.95;11.65;;;12.70;99.90;;;;;;5093803;27;20039;-80
2023/04/16 09:17:55;;;;;;;28.25;11.05;;;12.80;99.90;;;;;;5110133;27;20092;-83
2023/04/16 09:20:21;;;;;;;29.02;11.75;;;12.90;99.90;;;;;;5109666;27;20043;-81
2023/04/16 09:22:47;;;;;;;31.15;13.05;;;12.90;99.90;;;;;;5092922;27;20058;-81
2023/04/16 09:25:13;;;;;;;35.50;12.90;;;13.00;99.90;;;;;;5092094;27;20051;-81
2023/04/16 09:27:39;;;;;;;37.65;12.55;;;13.10;99.90;;;;;;5092891;27;20165;-81
2023/04/16 09:30:24;;;;;;;28.88;11.82;;;13.30;99.90;;;;;;5108857;27;20419;-80
2023/04/16 09:32:52;;;;;;;34.60;11.93;;;13.40;99.90;;;;;;5110228;27;20396;-79
2023/04/16 09:35:18;;;;;;;27.77;11.02;;;13.50;99.90;;;;;;5092779;27;20047;-80
2023/04/16 09:37:55;;;;;;;31.90;11.70;;;13.60;99.90;;;;;;5091676;27;20047;-80
2023/04/16 09:40:26;;;;;;;32.70;12.10;;;13.70;99.90;;;;;;5092190;27;20043;-80
2023/04/16 09:42:55;;;;;;;39.42;12.20;;;13.70;99.90;;;;;;5108612;27;20057;-80
2023/04/16 09:45:21;;;;;;;29.63;13.15;;;13.70;99.90;;;;;;5093394;27;20043;-80
2023/04/16 09:47:46;;;;;;;29.65;11.73;;;13.70;99.90;;;;;;5092116;27;20521;-80
2023/04/16 09:50:17;;;;;;;27.42;11.30;;;13.70;99.90;;;;;;5092495;27;20041;-81
2023/04/16 09:52:46;;;;;;;27.73;11.27;;;13.70;99.90;;;;;;5093011;27;20363;-79
2023/04/16 09:55:12;;;;;;;30.60;10.75;;;13.60;99.90;;;;;;5108567;27;20429;-82
2023/04/16 09:57:38;;;;;;;33.33;11.55;;;13.70;99.90;;;;;;5093127;27;20039;-81
2023/04/16 10:00:07;;;;;;;26.08;10.73;;;13.70;99.90;;;;;;5092107;27;20513;-81
2023/04/16 10:02:33;;;;;;;31.45;10.77;;;13.70;99.90;;;;;;5076421;27;20142;-81
2023/04/16 10:05:01;;;;;;;29.13;10.70;;;13.70;99.90;;;;;;5108644;27;20043;-80
2023/04/16 10:07:28;;;;;;;23.98;10.30;;;13.80;99.90;;;;;;5109202;27;20386;-80
2023/04/16 10:09:54;;;;;;;31.23;11.40;;;13.90;99.90;;;;;;5109066;27;20100;-81
2023/04/16 10:12:20;;;;;;;34.30;11.73;;;13.90;99.90;;;;;;5108210;27;20367;-80
2023/04/16 10:14:46;;;;;;;26.50;10.90;;;13.90;99.90;;;;;;5092743;27;20106;-80
2023/04/16 10:17:12;;;;;;;29.85;11.57;;;14.00;99.90;;;;;;5090846;27;20085;-80
2023/04/16 10:19:39;;;;;;;33.10;11.88;;;14.10;99.90;;;;;;5109185;27;20039;-80
2023/04/16 10:22:05;;;;;;;27.75;11.73;;;14.20;99.90;;;;;;5091116;27;20482;-80
2023/04/16 10:24:32;;;;;;;34.45;12.00;;;14.30;99.90;;;;;;5091026;27;20102;-79
2023/04/16 10:26:59;;;;;;;31.73;11.45;;;14.30;99.90;;;;;;5091620;27;20140;-80
2023/04/16 10:29:27;;;;;;;28.02;11.30;;;14.30;99.90;;;;;;5073364;27;20047;-81
2023/04/16 10:31:55;;;;;;;30.88;11.55;;;14.30;99.90;;;;;;5108646;27;20043;-79
2023/04/16 10:34:23;;;;;;;29.25;10.85;;;14.40;99.90;;;;;;5125847;27;20043;-80
2023/04/16 10:36:51;;;;;;;24.27;10.68;;;14.50;99.90;;;;;;5108134;27;20055;-80
2023/04/16 10:39:26;;;;;;;30.92;12.40;;;14.20;99.90;;;;;;5107787;27;20051;-80
2023/04/16 10:42:07;;;;;;;29.40;12.10;;;14.50;99.90;;;;;;5107395;27;20043;-81
2023/04/16 10:44:33;;;;;;;24.95;11.65;;;14.40;99.90;;;;;;5108658;27;20043;-80
2023/04/16 10:46:59;;;;;;;27.85;10.90;;;14.40;99.90;;;;;;5107208;27;20031;-81
2023/04/16 10:49:26;;;;;;;31.35;11.75;;;14.40;99.90;;;;;;5091490;27;20080;-80
2023/04/16 10:52:18;;;;;;;28.20;11.15;;;14.30;99.90;;;;;;5090124;28;20039;-79
2023/04/16 10:54:45;;;;;;;28.85;10.93;;;14.30;99.90;;;;;;5098345;27;20047;-80
2023/04/16 10:57:19;;;;;;;23.75;10.82;;;14.30;99.90;;;;;;5107728;27;20585;-80
2023/04/16 10:59:45;;;;;;;34.80;12.15;;;14.40;99.90;;;;;;5107415;27;20047;-80
2023/04/16 11:02:16;;;;;;;36.30;12.18;;;14.40;99.90;;;;;;5126647;27;20096;-80
2023/04/16 11:04:46;;;;;;;27.98;11.80;;;14.30;99.90;;;;;;5126053;27;20041;-80
2023/04/16 11:07:19;;;;;;;29.05;10.73;;;14.20;99.90;;;;;;5126301;27;20518;-81
2023/04/16 11:10:03;;;;;;;28.02;12.02;;;14.20;99.90;;;;;;5126157;27;20043;-78
2023/04/16 11:12:36;;;;;;;28.98;12.77;;;14.30;99.90;;;;;;5125464;27;20046;-81
2023/04/16 11:15:07;;;;;;;29.13;11.02;;;14.30;99.90;;;;;;5127229;27;20035;-79
2023/04/16 11:17:39;;;;;;;20.08;12.05;;;14.30;99.90;;;;;;5125716;27;20393;-80
2023/04/16 11:20:13;;;;;;;31.83;12.73;;;14.30;99.90;;;;;;5125414;27;20055;-81
2023/04/16 11:22:40;;;;;;;30.88;11.88;;;14.30;99.90;;;;;;5108283;27;20043;-80
2023/04/16 11:25:06;;;;;;;28.20;12.25;;;14.30;99.90;;;;;;5124835;27;20862;-80
2023/04/16 11:27:32;;;;;;;36.75;13.15;;;14.30;99.90;;;;;;5126632;27;20031;-81
2023/04/16 11:30:03;;;;;;;28.08;11.32;;;14.30;99.90;;;;;;5106285;27;20043;-80
2023/04/16 11:32:33;;;;;;;22.25;10.50;;;14.50;99.90;;;;;;5107392;27;20520;-80
2023/04/16 11:35:02;;;;;;;35.38;12.68;;;14.50;99.90;;;;;;5106704;27;20051;-80
2023/04/16 11:37:36;;;;;;;25.10;12.32;;;14.50;99.90;;;;;;5105936;27;20111;-80
2023/04/16 11:40:07;;;;;;;30.20;11.85;;;14.50;99.90;;;;;;5107279;27;20125;-81
2023/04/16 11:42:35;;;;;;;27.05;12.27;;;14.60;99.90;;;;;;5088400;27;20125;-81
2023/04/16 11:45:02;;;;;;;26.38;11.68;;;14.70;99.90;;;;;;5107219;28;20533;-80
2023/04/16 11:47:29;;;;;;;27.25;12.07;;;14.80;99.90;;;;;;5107054;27;20045;-80
2023/04/16 11:49:55;;;;;;;29.15;12.43;;;14.80;99.90;;;;;;5090339;27;20043;-79
2023/04/16 11:52:30;;;;;;;26.45;11.73;;;14.90;99.90;;;;;;5090318;28;20050;-80
2023/04/16 11:54:57;;;;;;;26.17;12.60;;;15.00;99.90;;;;;;5106866;28;20055;-81
2023/04/16 11:57:32;;;;;;;27.25;11.77;;;14.90;99.90;;;;;;5125187;28;20498;-80
2023/04/16 11:59:59;;;;;;;23.05;11.20;;;14.90;99.90;;;;;;5124268;28;20386;-81
2023/04/16 12:02:38;;;;;;;25.95;11.02;;;14.70;99.90;;;;;;5126088;28;20054;-80
2023/04/16 12:05:06;;;;;;;23.52;12.35;;;14.40;99.90;;;;;;5110735;27;20070;-79
2023/04/16 12:07:44;;;;;;;27.75;11.75;;;14.30;99.90;;;;;;5110352;27;20576;-79
2023/04/16 12:10:10;;;;;;;28.65;12.07;;;14.70;99.90;;;;;;5111112;27;20140;-81
2023/04/16 12:12:35;;;;;;;29.77;12.65;;;14.20;99.90;;;;;;5128670;27;20057;-79
2023/04/16 12:15:02;;;;;;;28.98;11.93;;;14.20;99.90;;;;;;5111775;27;20071;-80
2023/04/16 12:17:30;;;;;;;32.72;13.40;;;14.10;99.90;;;;;;5110357;27;20484;-81
2023/04/16 12:19:58;;;;;;;27.77;11.63;;;14.20;99.90;;;;;;5111256;27;20043;-80
2023/04/16 12:22:35;;;;;;;37.50;12.13;;;13.90;99.90;;;;;;5129757;27;20386;-80
2023/04/16 12:25:03;;;;;;;25.92;10.80;;;13.30;99.90;;;;;;5128572;27;20039;-78
2023/04/16 12:27:50;;;;;;;24.70;11.32;;;14.40;99.90;;;;;;5129335;27;20047;-79
2023/04/16 12:30:23;;;;;;;31.25;12.70;;;14.60;99.90;;;;;;5128509;27;20066;-80
2023/04/16 12:32:52;;;;;;;28.70;11.13;;;14.60;99.90;;;;;;5129289;27;20050;-79